Time;durP1;ratioP1;P1;durP2;ratioP2;P2;SDS_P1;SDS_P2;PMS_P1;PMS_P2;Temp;Humidity;BMP_temperature;BMP_pressure;BME280_temperature;BME280_humidity;BME280_pressure;Samples;Min_cycle;Max_cycle;Signal;HPM_P1;HPM_P2
2022/03/21 00:01:53;;;;;;;15.40;12.73;;;;;;;9.55;41.16;101756.25;5060334;28;20473;-67
2022/03/21 00:04:20;;;;;;;17.30;13.97;;;;;;;9.40;42.23;101750.06;5061192;28;20482;-67
2022/03/21 00:06:47;;;;;;;18.30;13.27;;;;;;;9.48;42.91;101754.06;5060594;28;20481;-67
2022/03/21 00:09:13;;;;;;;16.40;12.73;;;;;;;9.19;42.48;101759.41;5073211;28;20440;-67
2022/03/21 00:11:42;;;;;;;16.53;12.37;;;;;;;9.12;42.93;101763.41;5083742;28;20510;-67
2022/03/21 00:14:11;;;;;;;17.90;12.40;;;;;;;9.04;43.12;101751.41;5081405;28;20478;-67
2022/03/21 00:16:38;;;;;;;14.93;12.50;;;;;;;9.04;43.85;101759.41;5080055;28;20483;-66
2022/03/21 00:19:05;;;;;;;16.53;13.13;;;;;;;8.84;43.68;101767.75;5079883;28;20941;-66
2022/03/21 00:21:34;;;;;;;17.60;13.10;;;;;;;8.76;44.41;101768.19;5064570;28;20516;-67
2022/03/21 00:24:01;;;;;;;16.00;12.60;;;;;;;8.74;43.53;101766.59;5072994;28;20548;-66
2022/03/21 00:26:27;;;;;;;20.17;14.80;;;;;;;8.75;43.78;101768.28;5064672;28;20587;-66
2022/03/21 00:28:56;;;;;;;16.60;12.63;;;;;;;8.85;43.20;101767.66;5075383;28;20447;-66
2022/03/21 00:31:22;;;;;;;16.20;12.80;;;;;;;8.95;43.48;101761.78;5071595;28;20507;-66
2022/03/21 00:33:49;;;;;;;15.57;11.83;;;;;;;8.84;43.55;101762.41;5069949;28;20456;-66
2022/03/21 00:36:16;;;;;;;18.03;12.17;;;;;;;8.79;43.52;101754.69;5065648;28;20499;-66
2022/03/21 00:38:44;;;;;;;18.17;12.97;;;;;;;8.72;44.54;101760.50;5060797;28;20734;-66
2022/03/21 00:41:11;;;;;;;18.53;13.70;;;;;;;8.79;44.40;101761.84;5061489;28;20480;-66
2022/03/21 00:43:38;;;;;;;16.03;13.43;;;;;;;8.73;44.26;101770.19;5062172;28;20460;-67
2022/03/21 00:46:08;;;;;;;13.97;11.97;;;;;;;8.56;45.04;101766.72;5065223;28;20913;-67
2022/03/21 00:48:35;;;;;;;15.30;13.17;;;;;;;8.48;45.13;101764.50;5079938;28;20448;-66
2022/03/21 00:51:01;;;;;;;17.70;12.60;;;;;;;8.37;45.04;101758.91;5080284;28;20534;-66
2022/03/21 00:53:28;;;;;;;17.23;12.53;;;;;;;8.32;45.55;101760.13;5062582;28;20449;-67
2022/03/21 00:55:55;;;;;;;16.90;11.13;;;;;;;8.20;46.13;101759.88;5069321;28;20946;-67
2022/03/21 00:58:21;;;;;;;17.13;12.17;;;;;;;8.08;45.96;101765.91;5074956;28;20449;-67
2022/03/21 01:00:48;;;;;;;18.43;12.80;;;;;;;8.10;46.17;101767.53;5061451;28;20468;-67
2022/03/21 01:03:16;;;;;;;17.20;12.30;;;;;;;8.05;45.83;101766.09;5060860;28;20531;-67
2022/03/21 01:05:43;;;;;;;16.30;11.70;;;;;;;8.05;45.93;101768.75;5069544;28;20540;-67
2022/03/21 01:08:10;;;;;;;17.10;13.30;;;;;;;7.89;46.06;101761.63;5066104;28;20488;-68
2022/03/21 01:10:36;;;;;;;13.60;10.40;;;;;;;7.85;46.27;101764.56;5060815;28;20499;-67
2022/03/21 01:13:03;;;;;;;15.23;11.60;;;;;;;7.89;45.84;101763.44;5060554;28;20457;-66
2022/03/21 01:15:31;;;;;;;15.10;11.10;;;;;;;7.81;46.20;101763.88;5060958;28;20473;-67
2022/03/21 01:17:58;;;;;;;17.00;12.80;;;;;;;7.71;46.80;101762.66;5075716;28;20438;-67
2022/03/21 01:20:27;;;;;;;15.77;11.17;;;;;;;7.64;46.34;101755.97;5076519;28;20440;-67
2022/03/21 01:22:53;;;;;;;15.67;11.90;;;;;;;7.50;46.53;101759.38;5063470;28;20459;-66
2022/03/21 01:25:20;;;;;;;16.80;12.00;;;;;;;7.62;46.08;101764.03;5064445;28;20469;-67
2022/03/21 01:27:47;;;;;;;16.30;12.60;;;;;;;7.63;46.23;101770.19;5084237;28;20541;-67
2022/03/21 01:30:16;;;;;;;16.80;11.90;;;;;;;7.53;46.29;101768.06;5066433;28;20532;-66
2022/03/21 01:32:43;;;;;;;15.90;11.90;;;;;;;7.40;46.57;101774.13;5083241;28;20482;-67
2022/03/21 01:35:11;;;;;;;18.77;11.93;;;;;;;7.40;46.78;101769.66;5082973;28;20443;-67
2022/03/21 01:37:39;;;;;;;17.37;11.30;;;;;;;7.49;46.06;101769.13;5073558;28;20486;-67
2022/03/21 01:40:07;;;;;;;15.97;13.10;;;;;;;7.40;46.36;101776.78;5064829;28;20490;-67
2022/03/21 01:42:36;;;;;;;18.07;12.60;;;;;;;7.40;45.99;101774.13;5074694;28;20452;-67
2022/03/21 01:45:04;;;;;;;16.63;12.07;;;;;;;7.44;45.74;101775.66;5082908;28;20448;-67
2022/03/21 01:47:33;;;;;;;14.70;12.73;;;;;;;7.42;45.63;101783.72;5066275;28;20557;-66
2022/03/21 01:49:59;;;;;;;15.70;11.27;;;;;;;7.38;45.72;101784.84;5064482;28;20459;-66
2022/03/21 01:52:26;;;;;;;16.23;11.87;;;;;;;7.40;45.85;101782.94;5073188;28;20507;-67
2022/03/21 01:57:38;;;;;;;17.47;12.60;;;;;;;7.28;45.92;101776.47;5079882;28;20847;-66
2022/03/21 02:00:06;;;;;;;13.17;11.63;;;;;;;7.29;46.67;101772.88;5078934;28;20452;-67
2022/03/21 02:02:33;;;;;;;15.93;12.33;;;;;;;7.12;46.45;101775.59;5077589;28;20475;-66
2022/03/21 02:05:00;;;;;;;15.00;11.63;;;;;;;7.03;46.82;101776.03;5096493;28;20442;-65
2022/03/21 02:07:27;;;;;;;15.93;12.17;;;;;;;7.05;46.58;101780.38;5102517;28;20478;-66
2022/03/21 02:09:55;;;;;;;17.40;13.03;;;;;;;6.95;47.03;101779.97;5098670;28;20440;-66
2022/03/21 02:12:22;;;;;;;17.87;12.23;;;;;;;6.91;47.36;101790.84;5085789;28;20482;-66
2022/03/21 02:14:49;;;;;;;16.87;12.20;;;;;;;6.90;47.80;101775.84;5084202;28;20456;-67
2022/03/21 02:17:19;;;;;;;16.50;12.10;;;;;;;6.89;47.65;101775.00;5089282;28;20529;-67
2022/03/21 02:19:47;;;;;;;16.73;11.17;;;;;;;6.88;47.05;101775.06;5093713;28;20432;-67
2022/03/21 02:22:24;;;;;;;17.43;12.20;;;;;;;6.90;47.19;101776.69;5082145;28;20487;-66
2022/03/21 02:25:01;;;;;;;18.30;13.10;;;;;;;6.89;47.56;101774.09;5100344;28;20475;-67
2022/03/21 02:27:29;;;;;;;17.90;11.90;;;;;;;7.04;46.60;101772.47;5083671;28;20800;-66
2022/03/21 02:29:57;;;;;;;18.00;12.87;;;;;;;6.96;47.20;101770.19;5103611;28;20463;-67
2022/03/21 02:32:23;;;;;;;17.33;11.43;;;;;;;6.95;47.06;101773.81;5100818;28;20475;-67
2022/03/21 02:34:50;;;;;;;16.70;11.70;;;;;;;6.93;47.02;101773.88;5072191;28;20432;-66
2022/03/21 02:37:18;;;;;;;16.63;12.40;;;;;;;6.96;46.66;101775.50;5082453;28;20548;-67
2022/03/21 02:39:45;;;;;;;18.50;13.30;;;;;;;6.83;48.10;101780.59;5085937;28;20524;-67
2022/03/21 02:42:13;;;;;;;17.40;12.33;;;;;;;6.65;48.17;101776.22;5098692;28;20474;-66
2022/03/21 02:44:41;;;;;;;17.63;12.07;;;;;;;6.51;50.10;101779.56;5087428;28;20489;-67
2022/03/21 02:47:09;;;;;;;18.40;12.23;;;;;;;6.36;49.75;101783.88;5075964;28;20514;-66
2022/03/21 02:49:37;;;;;;;16.60;12.43;;;;;;;6.33;50.36;101784.84;5101190;28;20446;-67
2022/03/21 02:52:05;;;;;;;15.20;12.13;;;;;;;6.27;50.25;101784.28;5087638;28;20489;-67
2022/03/21 02:54:32;;;;;;;18.30;12.27;;;;;;;6.18;50.41;101788.25;5091124;28;20483;-67
2022/03/21 02:56:59;;;;;;;18.87;13.50;;;;;;;6.12;49.83;101778.81;5085543;28;20568;-67
2022/03/21 02:59:26;;;;;;;16.33;13.33;;;;;;;6.22;49.51;101781.88;5102946;28;20448;-66
2022/03/21 03:01:55;;;;;;;16.73;12.10;;;;;;;6.18;49.87;101780.28;5094288;28;20476;-67
2022/03/21 03:04:22;;;;;;;17.80;13.00;;;;;;;6.09;50.27;101783.41;5102288;28;20439;-67
2022/03/21 03:06:48;;;;;;;17.63;11.77;;;;;;;6.01;50.53;101787.28;5100971;28;20479;-67
2022/03/21 03:09:15;;;;;;;17.83;13.17;;;;;;;6.07;49.62;101793.25;5100820;28;20431;-66
2022/03/21 03:11:42;;;;;;;16.83;11.90;;;;;;;5.96;50.38;101796.41;5101903;28;21034;-66
2022/03/21 03:14:09;;;;;;;16.90;11.73;;;;;;;5.81;51.50;101779.38;5102003;28;21069;-66
2022/03/21 03:16:36;;;;;;;17.10;12.30;;;;;;;5.76;51.77;101792.00;5081962;28;20476;-66
2022/03/21 03:19:04;;;;;;;17.80;12.90;;;;;;;5.70;51.21;101793.16;5091007;28;20911;-67
2022/03/21 03:21:38;;;;;;;17.07;12.33;;;;;;;5.71;51.23;101789.56;5090641;28;21061;-66
2022/03/21 03:24:05;;;;;;;18.23;12.70;;;;;;;5.60;51.70;101798.00;5082944;28;20448;-67
2022/03/21 03:26:32;;;;;;;16.27;12.03;;;;;;;5.64;50.97;101790.75;5082405;28;20472;-67
2022/03/21 03:28:59;;;;;;;18.87;13.50;;;;;;;5.67;51.04;101790.63;5101826;28;20442;-67
2022/03/21 03:31:26;;;;;;;16.40;12.30;;;;;;;5.66;50.88;101795.09;5101159;28;20502;-67
2022/03/21 03:33:53;;;;;;;17.67;12.47;;;;;;;5.68;50.65;101795.03;5082275;28;20456;-67
2022/03/21 03:36:21;;;;;;;17.77;12.73;;;;;;;5.68;50.60;101797.69;5091072;28;20483;-66
2022/03/21 03:38:51;;;;;;;18.37;13.10;;;;;;;5.63;50.68;101803.19;5100244;28;21015;-66
2022/03/21 03:41:17;;;;;;;17.90;12.30;;;;;;;5.85;50.16;101792.44;5083344;28;20582;-65
2022/03/21 03:43:44;;;;;;;18.80;15.70;;;;;;;5.72;50.23;101793.09;5083741;28;20478;-66
2022/03/21 03:46:11;;;;;;;21.57;13.57;;;;;;;5.59;51.17;101793.66;5081167;28;20504;-67
2022/03/21 03:48:38;;;;;;;19.90;14.53;;;;;;;5.49;51.30;101784.38;5084261;28;20493;-67
2022/03/21 03:51:05;;;;;;;16.77;12.80;;;;;;;5.45;51.20;101786.31;5101155;28;20471;-67
2022/03/21 03:53:34;;;;;;;17.40;13.20;;;;;;;5.37;51.52;101792.91;5094544;28;20452;-67
2022/03/21 03:56:01;;;;;;;19.17;14.27;;;;;;;5.35;51.55;101794.78;5081562;28;20486;-66
2022/03/21 03:58:28;;;;;;;18.80;13.70;;;;;;;5.36;51.41;101785.88;5093741;28;20493;-67
2022/03/21 04:00:55;;;;;;;21.77;14.47;;;;;;;5.41;51.24;101791.81;5091231;28;20539;-67
2022/03/21 04:06:06;;;;;;;16.90;12.90;;;;;;;5.40;51.19;101790.09;5084984;28;20491;-67
2022/03/21 04:08:34;;;;;;;14.87;11.27;;;;;;;5.46;50.87;101789.81;5080860;28;20476;-66
2022/03/21 04:11:01;;;;;;;18.93;13.33;;;;;;;5.38;51.07;101794.63;5081933;28;20510;-66
2022/03/21 04:13:28;;;;;;;17.40;12.40;;;;;;;5.41;51.37;101797.97;5096538;28;20899;-67
2022/03/21 04:15:54;;;;;;;15.43;12.10;;;;;;;5.36;51.21;101796.47;5080963;28;20499;-66
2022/03/21 04:18:21;;;;;;;13.90;11.00;;;;;;;5.54;50.88;101795.66;5094252;28;20903;-66
2022/03/21 04:20:50;;;;;;;17.97;12.37;;;;;;;5.42;51.45;101799.72;5100197;28;20474;-67
2022/03/21 04:23:17;;;;;;;19.17;13.13;;;;;;;5.47;50.99;101792.41;5091324;28;20452;-66
2022/03/21 04:25:46;;;;;;;16.53;11.90;;;;;;;5.43;50.90;101798.81;5081066;28;20497;-66
2022/03/21 04:28:14;;;;;;;16.40;11.83;;;;;;;5.42;50.82;101801.53;5084024;28;20500;-66
2022/03/21 04:30:41;;;;;;;17.87;11.40;;;;;;;5.39;51.29;101789.25;5095844;28;20527;-67
2022/03/21 04:33:09;;;;;;;14.90;11.70;;;;;;;5.46;50.89;101795.13;5098623;28;20461;-66
2022/03/21 04:35:36;;;;;;;14.13;11.80;;;;;;;5.49;51.02;101805.63;5080776;28;20490;-67
2022/03/21 04:38:03;;;;;;;17.30;13.43;;;;;;;5.39;51.42;101799.84;5083062;28;20458;-66
2022/03/21 04:40:30;;;;;;;19.10;13.30;;;;;;;5.34;51.14;101804.50;5099777;28;20467;-66
2022/03/21 04:42:59;;;;;;;15.23;11.70;;;;;;;5.44;50.95;101799.66;5092972;28;20506;-66
2022/03/21 04:45:26;;;;;;;17.93;12.40;;;;;;;5.33;51.09;101809.88;5079749;28;20462;-66
2022/03/21 04:47:52;;;;;;;14.63;12.40;;;;;;;5.42;50.92;101810.31;5096272;28;20507;-66
2022/03/21 04:50:19;;;;;;;15.00;11.80;;;;;;;5.36;51.17;101815.91;5081021;28;20490;-66
2022/03/21 04:52:46;;;;;;;17.70;12.20;;;;;;;5.33;51.26;101809.88;5083454;28;20477;-66
2022/03/21 04:55:15;;;;;;;16.90;12.40;;;;;;;5.28;51.51;101813.59;5088818;28;20567;-66
2022/03/21 04:57:42;;;;;;;15.60;12.40;;;;;;;5.38;50.95;101807.88;5099246;28;20442;-65
2022/03/21 05:00:13;;;;;;;15.57;11.97;;;;;;;5.24;51.75;101811.13;5097562;28;20738;-65
2022/03/21 05:02:41;;;;;;;15.00;11.47;;;;;;;5.17;51.75;101805.25;5086539;28;20474;-65
2022/03/21 05:05:09;;;;;;;18.63;13.23;;;;;;;5.08;52.17;101811.81;5082704;28;20508;-66
2022/03/21 05:07:40;;;;;;;18.53;12.77;;;;;;;5.11;52.33;101813.47;5100117;28;20485;-66
2022/03/21 05:10:07;;;;;;;19.07;13.57;;;;;;;5.01;53.92;101820.09;5090623;28;21004;-66
2022/03/21 05:12:33;;;;;;;18.37;12.40;;;;;;;5.01;53.00;101820.94;5067522;28;20806;-66
2022/03/21 05:15:00;;;;;;;16.63;11.50;;;;;;;4.90;52.90;101817.91;5083757;28;20498;-66
2022/03/21 05:17:30;;;;;;;16.80;12.20;;;;;;;4.98;53.02;101820.22;5084753;28;20470;-67
2022/03/21 05:19:57;;;;;;;17.00;13.00;;;;;;;4.92;53.16;101821.38;5092687;28;20440;-67
2022/03/21 05:22:23;;;;;;;18.60;11.93;;;;;;;4.91;54.58;101819.63;5079205;28;20483;-66
2022/03/21 05:35:56;;;;;;;18.63;12.90;;;;;;;4.74;55.72;101822.13;5080562;28;20478;-69
2022/03/21 05:38:24;;;;;;;16.03;12.70;;;;;;;4.76;56.56;101830.91;5080834;28;20501;-75
2022/03/21 05:40:51;;;;;;;17.50;12.50;;;;;;;4.77;55.17;101824.66;5097593;28;20470;-68
2022/03/21 05:43:18;;;;;;;20.07;13.67;;;;;;;4.80;57.32;101828.03;5095495;28;20805;-69
2022/03/21 05:45:46;;;;;;;19.40;13.50;;;;;;;4.76;56.65;101836.19;5100138;28;20467;-68
2022/03/21 05:50:58;;;;;;;20.87;13.87;;;;;;;4.76;57.44;101838.84;5099534;28;20466;-68
2022/03/21 05:53:25;;;;;;;18.00;13.67;;;;;;;4.84;56.71;101837.59;5073235;28;20463;-69
2022/03/21 05:55:51;;;;;;;17.80;13.37;;;;;;;4.96;55.40;101838.84;5099724;28;20501;-68
2022/03/21 05:58:18;;;;;;;19.97;13.53;;;;;;;5.16;54.29;101839.81;5080957;28;20443;-68
2022/03/21 06:00:45;;;;;;;26.50;12.67;;;;;;;5.20;53.29;101847.53;5080049;28;20506;-69
2022/03/21 06:03:11;;;;;;;18.87;13.73;;;;;;;5.31;53.10;101857.66;5099091;28;20439;-68
2022/03/21 06:05:40;;;;;;;15.90;12.43;;;;;;;5.52;51.52;101853.22;5095106;28;20475;-69
2022/03/21 06:08:07;;;;;;;16.40;12.13;;;;;;;5.89;50.36;101859.50;5083713;28;20491;-73
2022/03/21 06:10:36;;;;;;;17.67;12.10;;;;;;;6.37;48.97;101855.50;5098491;28;20545;-71
2022/03/21 06:13:05;;;;;;;15.40;12.57;;;;;;;6.79;48.11;101870.28;5083498;28;20447;-72
2022/03/21 06:15:31;;;;;;;16.93;11.87;;;;;;;7.25;46.69;101871.56;5096441;28;20500;-72
2022/03/21 06:17:59;;;;;;;17.97;12.97;;;;;;;7.64;45.67;101873.09;5103694;28;20447;-71
2022/03/21 06:20:26;;;;;;;16.23;13.10;;;;;;;7.94;44.73;101864.38;5095332;28;20451;-69
2022/03/21 06:22:54;;;;;;;16.47;12.87;;;;;;;8.16;44.50;101864.91;5101054;28;20516;-71
2022/03/21 06:25:21;;;;;;;19.50;12.33;;;;;;;8.20;44.48;101870.94;5100194;28;20447;-69
2022/03/21 06:27:48;;;;;;;18.37;12.20;;;;;;;8.33;43.63;101866.59;5083043;28;20498;-69
2022/03/21 06:30:15;;;;;;;19.67;13.60;;;;;;;8.86;44.47;101876.03;5083744;28;20477;-69
2022/03/21 06:32:42;;;;;;;19.87;11.97;;;;;;;9.29;41.75;101878.00;5082989;28;20479;-69
2022/03/21 06:35:10;;;;;;;22.00;13.30;;;;;;;9.75;41.43;101879.66;5078991;28;20523;-69
2022/03/21 06:37:37;;;;;;;16.53;11.97;;;;;;;10.15;39.44;101885.16;5078528;28;20452;-69
2022/03/21 06:40:07;;;;;;;18.97;12.70;;;;;;;10.08;40.12;101884.69;5094530;28;20874;-69
2022/03/21 06:42:34;;;;;;;26.00;13.87;;;;;;;10.35;39.90;101884.78;5082546;28;20583;-69
2022/03/21 06:45:00;;;;;;;19.50;13.07;;;;;;;10.85;38.94;101898.50;5081547;28;20823;-68
2022/03/21 06:47:27;;;;;;;23.30;13.83;;;;;;;11.06;37.56;101887.31;5081205;28;20475;-69
2022/03/21 06:49:54;;;;;;;21.60;13.47;;;;;;;10.78;38.89;101886.47;5082453;28;20444;-69
2022/03/21 06:52:20;;;;;;;25.67;13.43;;;;;;;10.37;38.83;101890.03;5100659;28;20501;-69
2022/03/21 06:54:48;;;;;;;15.27;12.97;;;;;;;11.15;37.41;101896.53;5074745;28;20562;-69
2022/03/21 06:57:17;;;;;;;16.60;12.77;;;;;;;11.98;35.98;101897.03;5071279;28;20499;-70
2022/03/21 06:59:44;;;;;;;17.20;13.27;;;;;;;11.95;35.68;101902.59;5081810;28;20487;-69
2022/03/21 07:02:10;;;;;;;14.17;12.50;;;;;;;11.60;35.69;101910.41;5081216;28;20920;-69
2022/03/21 07:04:37;;;;;;;15.07;12.40;;;;;;;12.68;34.55;101902.75;5081575;28;20468;-69
2022/03/21 07:07:04;;;;;;;16.67;12.50;;;;;;;12.71;34.32;101903.38;5065601;28;20481;-70
2022/03/21 07:09:31;;;;;;;14.30;12.53;;;;;;;12.52;34.17;101911.06;5070436;28;20510;-69
2022/03/21 07:11:58;;;;;;;17.87;13.67;;;;;;;13.58;32.39;101916.53;5078794;28;20504;-69
2022/03/21 07:14:26;;;;;;;15.53;13.90;;;;;;;13.24;33.63;101921.75;5080202;28;20687;-69
2022/03/21 07:16:52;;;;;;;15.50;12.77;;;;;;;14.00;32.04;101919.50;5080221;28;20502;-69
2022/03/21 07:19:19;;;;;;;17.43;12.90;;;;;;;14.45;30.90;101922.16;5080582;28;20497;-69
2022/03/21 07:21:46;;;;;;;16.10;12.80;;;;;;;13.94;31.67;101920.84;5080557;28;20472;-69
2022/03/21 07:24:13;;;;;;;15.50;12.73;;;;;;;13.87;31.72;101916.94;5079717;28;20498;-69
2022/03/21 07:26:40;;;;;;;13.97;12.33;;;;;;;13.53;32.01;101913.34;5063988;28;20865;-69
2022/03/21 07:29:06;;;;;;;14.77;13.13;;;;;;;14.17;32.04;101911.94;5061212;28;20507;-69
2022/03/21 07:31:35;;;;;;;19.53;13.30;;;;;;;14.04;31.22;101917.41;5079743;28;20978;-70
2022/03/21 07:34:02;;;;;;;18.40;13.47;;;;;;;13.96;31.81;101928.78;5060160;28;20839;-69
2022/03/21 07:36:30;;;;;;;15.57;13.17;;;;;;;14.09;31.15;101924.13;5077492;28;20548;-70
2022/03/21 07:38:57;;;;;;;25.03;12.87;;;;;;;14.58;30.28;101924.75;5080044;28;20475;-69
2022/03/21 07:41:27;;;;;;;17.23;11.10;;;;;;;14.01;31.01;101921.22;5079679;28;20475;-70
2022/03/21 07:43:57;;;;;;;15.17;13.57;;;;;;;15.28;29.17;101932.47;5079908;28;21010;-70
2022/03/21 07:49:10;;;;;;;13.73;11.60;;;;;;;16.09;28.69;101924.56;5080330;28;20459;-69
2022/03/21 07:51:37;;;;;;;13.60;12.20;;;;;;;15.63;28.45;101927.56;5079982;28;20529;-70
2022/03/21 07:54:03;;;;;;;13.80;12.30;;;;;;;16.88;27.18;101916.56;5082236;28;20499;-70
2022/03/21 07:56:30;;;;;;;18.00;11.87;;;;;;;17.20;26.80;101925.38;5084906;28;20499;-70
2022/03/21 07:58:59;;;;;;;13.17;11.80;;;;;;;17.25;26.41;101929.34;5096782;28;20443;-70
2022/03/21 08:01:29;;;;;;;15.53;13.13;;;;;;;16.06;27.64;101931.09;5099186;28;20520;-70
2022/03/21 08:03:56;;;;;;;14.27;12.33;;;;;;;17.08;26.15;101930.06;5100288;28;20477;-70
2022/03/21 08:06:24;;;;;;;16.43;12.80;;;;;;;17.81;25.71;101932.25;5099621;28;20518;-69
2022/03/21 08:08:53;;;;;;;14.80;13.13;;;;;;;18.42;25.06;101928.19;5099908;28;20483;-69
2022/03/21 08:11:21;;;;;;;16.63;13.53;;;;;;;17.07;26.29;101928.38;5100006;28;20479;-69
2022/03/21 08:13:49;;;;;;;17.03;13.50;;;;;;;17.13;26.49;101925.09;5097479;28;20455;-69
2022/03/21 08:16:19;;;;;;;14.77;13.13;;;;;;;17.68;25.41;101927.16;5099385;28;20470;-70
2022/03/21 08:18:48;;;;;;;13.57;12.20;;;;;;;17.08;26.81;101917.44;5099939;28;20424;-69
2022/03/21 08:21:14;;;;;;;14.07;12.60;;;;;;;18.29;24.92;101928.53;5098773;28;20510;-70
2022/03/21 08:23:43;;;;;;;14.87;13.30;;;;;;;18.42;24.78;101928.19;5098899;28;20486;-70
2022/03/21 08:26:10;;;;;;;16.73;11.87;;;;;;;17.99;25.29;101932.38;5096694;28;20538;-70
2022/03/21 08:28:37;;;;;;;15.30;13.27;;;;;;;18.52;24.79;101930.81;5100244;28;20491;-70
2022/03/21 08:31:04;;;;;;;15.40;13.77;;;;;;;19.03;24.09;101934.78;5099261;28;20475;-70
2022/03/21 08:33:31;;;;;;;14.47;13.07;;;;;;;17.96;25.08;101927.25;5099668;28;20976;-70
2022/03/21 08:35:57;;;;;;;15.13;12.80;;;;;;;18.74;23.92;101930.41;5084530;28;20476;-69
2022/03/21 08:38:24;;;;;;;15.13;13.30;;;;;;;18.53;24.14;101925.25;5097335;28;20457;-69
2022/03/21 08:40:52;;;;;;;15.27;13.67;;;;;;;18.28;24.30;101918.72;5099364;28;20754;-69
2022/03/21 08:43:19;;;;;;;16.43;13.40;;;;;;;19.25;23.24;101921.75;5083922;28;20456;-69
2022/03/21 08:45:47;;;;;;;15.73;13.70;;;;;;;17.62;25.09;101923.19;5079028;28;20468;-69
2022/03/21 08:48:14;;;;;;;14.00;12.70;;;;;;;18.89;24.23;101924.50;5079401;28;20448;-70
2022/03/21 08:50:41;;;;;;;15.17;13.57;;;;;;;18.71;24.29;101917.16;5097411;28;20474;-69
2022/03/21 08:53:08;;;;;;;15.33;13.80;;;;;;;19.09;24.08;101917.06;5098663;28;20454;-70
2022/03/21 08:55:35;;;;;;;15.47;13.80;;;;;;;20.26;22.83;101923.97;5091591;28;20694;-70
2022/03/21 08:58:03;;;;;;;15.67;14.07;;;;;;;20.96;21.38;101920.09;5079476;28;20436;-70
2022/03/21 09:00:30;;;;;;;15.17;13.60;;;;;;;19.61;22.77;101919.81;5078955;28;20468;-70
2022/03/21 09:02:56;;;;;;;21.70;13.60;;;;;;;20.21;22.37;101913.56;5078528;28;20722;-70
2022/03/21 09:05:23;;;;;;;16.13;14.13;;;;;;;20.77;22.26;101915.81;5079125;28;20451;-70
2022/03/21 09:07:52;;;;;;;15.50;13.70;;;;;;;20.92;21.58;101916.00;5078955;28;20456;-70
2022/03/21 09:10:19;;;;;;;15.30;13.80;;;;;;;20.55;22.05;101909.09;5078787;28;20467;-70
2022/03/21 09:12:46;;;;;;;14.13;12.57;;;;;;;20.31;21.55;101919.72;5094147;28;20440;-70
2022/03/21 09:15:14;;;;;;;15.67;13.80;;;;;;;20.87;21.99;101908.34;5078333;28;20456;-71
2022/03/21 09:17:41;;;;;;;16.53;14.00;;;;;;;20.87;22.30;101911.06;5079522;28;20530;-70
2022/03/21 09:20:09;;;;;;;15.43;13.93;;;;;;;19.56;23.00;101912.19;5078458;28;20482;-71
2022/03/21 09:22:37;;;;;;;15.90;13.50;;;;;;;20.42;22.49;101899.56;5079677;28;20847;-69
2022/03/21 09:25:04;;;;;;;21.73;13.07;;;;;;;21.37;22.28;101899.19;5078227;28;20462;-70
2022/03/21 09:27:31;;;;;;;17.60;13.80;;;;;;;20.55;22.56;101895.50;5079288;28;21004;-70
2022/03/21 09:29:58;;;;;;;15.40;13.70;;;;;;;21.10;22.41;101897.66;5087609;28;20562;-69
2022/03/21 09:32:26;;;;;;;16.73;15.00;;;;;;;21.59;21.50;101896.78;5098875;28;20467;-70
2022/03/21 09:34:53;;;;;;;14.93;12.97;;;;;;;23.69;19.39;101901.31;5092663;28;20954;-70
2022/03/21 09:37:20;;;;;;;18.40;14.30;;;;;;;22.53;20.45;101897.84;5098514;28;20479;-70
2022/03/21 09:39:46;;;;;;;15.80;13.73;;;;;;;22.50;20.38;101898.19;5086519;28;20446;-70
2022/03/21 09:42:14;;;;;;;15.13;13.53;;;;;;;22.67;20.27;101903.53;5082419;28;21043;-71
2022/03/21 09:44:41;;;;;;;15.73;14.10;;;;;;;23.19;19.65;101900.09;5083003;28;20801;-70
2022/03/21 09:49:52;;;;;;;16.10;14.50;;;;;;;23.28;19.21;101898.16;5100072;28;20521;-70
2022/03/21 09:52:19;;;;;;;19.33;14.50;;;;;;;23.19;19.04;101900.09;5101815;28;20485;-70
2022/03/21 09:54:46;;;;;;;18.57;13.37;;;;;;;22.44;20.08;101896.16;5101858;28;20535;-70
2022/03/21 09:57:12;;;;;;;14.63;13.10;;;;;;;21.37;21.27;101895.59;5101974;28;20474;-69
2022/03/21 09:59:39;;;;;;;16.80;15.10;;;;;;;21.78;20.72;101890.94;5103177;28;20811;-70
2022/03/21 10:02:07;;;;;;;18.00;14.00;;;;;;;21.19;21.69;101893.06;5082237;28;20541;-69
2022/03/21 10:04:34;;;;;;;17.43;14.43;;;;;;;21.05;21.89;101872.84;5082132;28;20452;-69
2022/03/21 10:07:03;;;;;;;16.00;14.30;;;;;;;20.35;21.93;101884.09;5081789;28;20529;-69
2022/03/21 10:09:29;;;;;;;14.87;13.47;;;;;;;22.70;20.54;101889.53;5082468;28;20828;-69
2022/03/21 10:11:58;;;;;;;16.20;14.50;;;;;;;22.77;20.17;101903.28;5081440;28;20506;-70
2022/03/21 10:14:27;;;;;;;17.90;15.10;;;;;;;22.82;19.63;101900.88;5081964;28;20470;-70
2022/03/21 10:16:55;;;;;;;16.40;14.23;;;;;;;22.91;20.17;101888.88;5098976;28;20482;-70
2022/03/21 10:19:22;;;;;;;19.53;15.23;;;;;;;23.06;20.28;101888.97;5102222;28;20431;-70
2022/03/21 10:22:05;;;;;;;19.50;15.00;;;;;;;23.52;20.13;101888.03;5101989;28;20577;-70
2022/03/21 10:24:37;;;;;;;16.57;14.53;;;;;;;22.42;21.16;101894.66;5100357;28;20888;-69
2022/03/21 10:27:05;;;;;;;19.40;16.27;;;;;;;23.53;20.03;101887.00;5081888;28;20475;-70
2022/03/21 10:29:32;;;;;;;16.07;14.20;;;;;;;23.60;18.92;101882.50;5086937;28;20470;-70
2022/03/21 10:31:59;;;;;;;15.43;13.93;;;;;;;23.76;18.85;101885.03;5101747;28;20508;-69
2022/03/21 10:34:30;;;;;;;16.50;14.70;;;;;;;24.70;18.08;101878.88;5101713;28;20896;-70
2022/03/21 10:37:01;;;;;;;15.60;13.80;;;;;;;23.59;19.68;101878.03;5101651;28;20486;-70
2022/03/21 10:39:31;;;;;;;17.40;14.40;;;;;;;23.94;19.78;101879.22;5101917;28;20487;-70
2022/03/21 10:42:00;;;;;;;17.80;14.63;;;;;;;24.11;18.74;101884.47;5080981;28;20487;-70
2022/03/21 10:44:26;;;;;;;21.67;16.23;;;;;;;23.18;19.72;101878.47;5081608;28;20455;-70
2022/03/21 10:46:54;;;;;;;19.50;16.17;;;;;;;23.34;19.74;101886.50;5066510;28;20483;-70
2022/03/21 10:49:30;;;;;;;16.90;15.10;;;;;;;23.66;20.31;101882.59;5061238;28;20440;-70
2022/03/21 10:51:57;;;;;;;17.33;15.57;;;;;;;23.55;19.91;101882.19;5075930;28;20472;-70
2022/03/21 10:54:42;;;;;;;17.63;15.73;;;;;;;23.78;20.05;101882.09;5080745;28;20475;-70
2022/03/21 10:57:26;;;;;;;17.53;15.43;;;;;;;24.83;18.80;101880.09;5051229;28;20477;-70
2022/03/21 10:59:53;;;;;;;16.40;14.33;;;;;;;24.18;18.94;101886.28;5061543;28;20488;-69
2022/03/21 11:02:20;;;;;;;16.47;14.77;;;;;;;24.85;18.64;101878.81;5060543;28;20499;-70
2022/03/21 11:04:46;;;;;;;17.10;15.50;;;;;;;25.29;18.42;101874.19;5066634;28;20459;-70
2022/03/21 11:07:14;;;;;;;21.03;15.90;;;;;;;24.68;18.69;101880.13;5080918;28;20502;-69
2022/03/21 11:09:42;;;;;;;20.07;15.13;;;;;;;23.69;19.41;101886.81;5081307;28;20975;-70
2022/03/21 11:12:10;;;;;;;16.70;15.00;;;;;;;23.31;20.28;101875.94;5081040;28;20503;-69
2022/03/21 11:14:39;;;;;;;18.20;15.97;;;;;;;23.50;19.28;101878.16;5081039;28;20459;-70
2022/03/21 11:17:07;;;;;;;18.70;16.80;;;;;;;22.41;20.96;101874.75;5080476;28;20474;-70
2022/03/21 11:19:34;;;;;;;18.00;15.53;;;;;;;23.17;20.64;101880.31;5081151;28;20472;-70
2022/03/21 11:22:01;;;;;;;18.70;15.97;;;;;;;24.20;20.12;101870.53;5080532;28;20472;-70
2022/03/21 11:24:28;;;;;;;18.67;16.37;;;;;;;24.15;19.27;101870.25;5080846;28;20503;-70
2022/03/21 11:27:00;;;;;;;17.77;15.63;;;;;;;23.69;20.47;101867.69;5080158;28;20476;-70
2022/03/21 11:29:36;;;;;;;19.03;16.30;;;;;;;23.64;19.83;101867.41;5080415;28;20428;-69
2022/03/21 11:32:09;;;;;;;18.97;15.60;;;;;;;23.91;20.04;101868.69;5080130;28;20471;-70
2022/03/21 11:34:44;;;;;;;18.67;15.53;;;;;;;24.19;19.18;101874.28;5081031;28;20444;-70
2022/03/21 11:37:25;;;;;;;19.87;17.30;;;;;;;24.46;19.43;101863.69;5079908;28;20486;-70
2022/03/21 11:40:24;;;;;;;18.10;16.20;;;;;;;23.86;19.60;101871.97;5080014;28;20587;-70
2022/03/21 11:42:53;;;;;;;19.00;17.00;;;;;;;23.91;19.50;101868.69;5080110;28;20456;-71